Overview Statistics Trail Chart Weather Telemetry Raw packets
 

This is the latest recevied weather packets stored in our database for station/object KA4YMY. If no packets are shown the sender has not sent any weather packets the latest 10 day(s).

<< 1 2 3 4 5 6 >>
Time Temp. Humidity Pressure Rain* Wind** Luminosity Snow
1788544818 35.56° C 56% 1016 hPa 0 mm - - -
1788544218 35° C 58% 1016.2 hPa 0 mm - - -
1788543617 34.44° C 59% 1016.2 hPa 0 mm - - -
1788543017 35° C 56% 1016.3 hPa 0 mm - - -
1788542418 34.44° C 60% 1016.4 hPa 0 mm - - -
1788541817 35° C 60% 1016.5 hPa 0 mm - - -
1788541217 33.89° C 61% 1016.6 hPa 0 mm - - -
1788540617 33.89° C 62% 1016.8 hPa 0 mm - - -
1788540018 33.33° C 65% 1016.8 hPa 0 mm - - -
1788539417 33.33° C 65% 1017 hPa 0 mm - - -
1788538817 32.78° C 67% 1017 hPa 0 mm - - -
1788538235 32.78° C 66% 1017.2 hPa 0 mm - - -
1788537617 32.78° C 66% 1017.3 hPa 0 mm - - -
1788537017 32.22° C 67% 1017.4 hPa 0 mm - - -
1788536417 32.22° C 66% 1017.4 hPa 0 mm - - -
1788535817 32.22° C 66% 1017.5 hPa 0 mm - - -
1788535222 31.67° C 68% 1017.5 hPa 0 mm - - -
1788534617 31.67° C 67% 1017.3 hPa 0 mm - - -
1788534017 31.67° C 69% 1017.3 hPa 0 mm - - -
1788533417 31.67° C 68% 1017.4 hPa 0 mm - - -
1788532817 31.11° C 71% 1017.4 hPa 0 mm - - -
1788532217 31.11° C 69% 1017.5 hPa 0 mm - - -
1788531617 31.67° C 69% 1017.5 hPa 0 mm - - -
1788531017 31.11° C 71% 1017.3 hPa 0 mm - - -
1788530417 30.56° C 74% 1017.3 hPa 0 mm - - -

* Rain latest hour (hover to see other rain measurements)
** Current wind speed in m/s (hover to see current wind gust speed)